createdAt,value
2019-02-15T00:01:18.448Z,9.53
2019-02-15T00:06:14.255Z,7.60
2019-02-15T00:11:09.982Z,7.67
2019-02-15T00:16:05.685Z,8.27
2019-02-15T00:21:15.037Z,8.67
2019-02-15T00:26:10.739Z,11.13
2019-02-15T00:31:07.859Z,8.23
2019-02-15T00:36:03.567Z,8.33
2019-02-15T00:40:59.333Z,8.30
2019-02-15T00:45:59.631Z,11.17
2019-02-15T00:51:16.275Z,9.87
2019-02-15T00:56:19.765Z,13.80
2019-02-15T01:01:23.342Z,9.20
2019-02-15T01:06:38.750Z,7.33
2019-02-15T01:11:39.233Z,10.87
2019-02-15T01:16:34.913Z,12.07
2019-02-15T01:21:30.870Z,8.70
2019-02-15T01:26:31.380Z,8.37
2019-02-15T01:31:28.963Z,13.30
2019-02-15T01:36:29.321Z,8.83
2019-02-15T01:41:41.745Z,8.00
2019-02-15T01:46:39.376Z,8.93
2019-02-15T01:51:35.124Z,9.10
2019-02-15T01:56:30.833Z,9.17
2019-02-15T02:01:27.126Z,11.77
2019-02-15T02:06:22.893Z,9.63
2019-02-15T02:11:18.715Z,7.97
2019-02-15T02:16:14.586Z,9.87
2019-02-15T02:21:10.259Z,12.60
2019-02-15T02:26:06.075Z,13.03
2019-02-15T02:31:01.795Z,10.63
2019-02-15T02:35:57.535Z,10.13
2019-02-15T02:40:53.223Z,11.43
2019-02-15T02:45:48.922Z,10.30
2019-02-15T02:50:44.883Z,8.67
2019-02-15T02:55:40.653Z,8.70
2019-02-15T03:00:36.376Z,9.13
2019-02-15T03:05:32.068Z,13.27
2019-02-15T03:10:27.861Z,10.23
2019-02-15T03:15:23.575Z,10.00
2019-02-15T03:20:30.491Z,9.00
2019-02-15T03:25:16.905Z,11.60
2019-02-15T03:30:12.603Z,9.87
2019-02-15T03:35:08.424Z,9.03
2019-02-15T03:40:07.524Z,10.40
2019-02-15T03:45:04.557Z,11.40
2019-02-15T03:50:00.341Z,10.20
2019-02-15T03:54:56.117Z,11.83
2019-02-15T03:59:51.896Z,12.07
2019-02-15T04:04:47.607Z,12.03
2019-02-15T04:09:43.579Z,10.50
2019-02-15T04:14:39.297Z,12.57
2019-02-15T04:19:35.005Z,9.93
2019-02-15T04:24:30.707Z,11.17
2019-02-15T04:29:26.439Z,9.00
2019-02-15T04:34:22.189Z,11.53
2019-02-15T04:39:18.016Z,13.73
2019-02-15T04:44:13.691Z,9.43
2019-02-15T04:49:09.413Z,15.67
2019-02-15T04:54:05.142Z,11.20
2019-02-15T04:59:02.117Z,11.83
2019-02-15T05:03:57.842Z,14.43
2019-02-15T05:08:53.604Z,10.57
2019-02-15T05:13:49.305Z,11.87
2019-02-15T05:18:45.068Z,13.50
2019-02-15T05:23:40.792Z,10.27
2019-02-15T05:28:36.480Z,13.80
2019-02-15T05:33:32.214Z,9.80
2019-02-15T05:38:28.005Z,10.77
2019-02-15T05:43:23.974Z,12.83
2019-02-15T05:48:19.767Z,16.13
2019-02-15T05:53:15.500Z,12.20
2019-02-15T05:58:11.206Z,11.07
2019-02-15T06:03:07.175Z,12.43
2019-02-15T06:08:02.876Z,11.80
2019-02-15T06:12:58.582Z,12.43
2019-02-15T06:17:54.292Z,14.23
2019-02-15T06:22:50.082Z,11.80
2019-02-15T06:27:47.768Z,13.23
2019-02-15T06:32:43.476Z,11.20
2019-02-15T06:37:39.183Z,10.47
2019-02-15T06:42:34.884Z,11.77
2019-02-15T06:47:30.587Z,18.00
2019-02-15T06:52:26.347Z,39.87
2019-02-15T06:57:22.089Z,60.83
2019-02-15T07:02:31.433Z,72.07
2019-02-15T07:07:27.135Z,65.73
2019-02-15T07:12:22.873Z,44.03
2019-02-15T07:17:18.589Z,29.83
2019-02-15T07:22:14.370Z,19.70
2019-02-15T07:27:10.072Z,19.27
2019-02-15T07:32:05.778Z,18.20
2019-02-15T07:37:01.489Z,25.07
2019-02-15T07:41:57.177Z,17.23
2019-02-15T07:46:53.135Z,16.40
2019-02-15T07:51:48.821Z,19.40
2019-02-15T07:56:44.544Z,23.90
2019-02-15T08:01:40.274Z,19.43
2019-02-15T08:06:35.965Z,21.10
2019-02-15T08:11:31.675Z,24.57
2019-02-15T08:16:27.400Z,45.77
2019-02-15T08:21:23.081Z,34.70
2019-02-15T08:26:18.808Z,20.43
2019-02-15T08:31:14.499Z,17.53
2019-02-15T08:36:10.223Z,15.63
2019-02-15T08:41:05.939Z,13.80
2019-02-15T08:46:03.363Z,16.00
2019-02-15T08:50:59.423Z,14.20
2019-02-15T08:55:55.171Z,19.55
2019-02-15T09:00:50.935Z,13.05
2019-02-15T09:05:46.711Z,18.98
2019-02-15T09:10:42.433Z,15.70
2019-02-15T09:15:38.159Z,19.45
2019-02-15T09:20:33.871Z,15.35
2019-02-15T09:25:29.581Z,15.35
2019-02-15T09:30:25.293Z,18.98
2019-02-15T09:35:20.966Z,14.23
2019-02-15T09:40:16.661Z,14.40
2019-02-15T09:45:12.348Z,16.32
2019-02-15T09:50:09.744Z,15.63
2019-02-15T09:55:06.217Z,16.05
2019-02-15T10:00:02.038Z,19.73
2019-02-15T10:04:57.740Z,15.55
2019-02-15T10:09:53.451Z,16.70
2019-02-15T10:14:49.177Z,18.82
2019-02-15T10:19:45.165Z,17.65
2019-02-15T10:24:40.870Z,16.45
2019-02-15T10:29:36.577Z,17.85
2019-02-15T10:34:32.284Z,17.67
2019-02-15T10:39:28.009Z,18.25
2019-02-15T10:44:23.836Z,19.87
2019-02-15T10:49:19.639Z,19.85
2019-02-15T10:54:15.367Z,20.65
2019-02-15T10:59:11.275Z,17.90
2019-02-15T11:04:07.082Z,19.37
2019-02-15T11:09:04.303Z,17.23
2019-02-15T11:14:00.306Z,18.42
2019-02-15T11:18:56.105Z,18.95
2019-02-15T11:23:51.799Z,16.87
2019-02-15T11:28:47.515Z,14.23
2019-02-15T11:33:43.221Z,9.45
2019-02-15T11:38:38.939Z,14.55
2019-02-15T11:43:34.657Z,9.80
2019-02-15T11:48:30.346Z,8.83
2019-02-15T11:53:26.083Z,7.83
2019-02-15T11:58:21.796Z,9.35
2019-02-15T12:03:17.499Z,7.97
2019-02-15T12:08:13.449Z,7.28
2019-02-15T12:13:09.177Z,6.85
2019-02-15T12:18:04.863Z,9.10
2019-02-15T12:23:00.562Z,8.68
2019-02-15T12:27:56.269Z,13.88
2019-02-15T12:32:51.985Z,6.37
2019-02-15T12:37:47.718Z,6.87
2019-02-15T12:42:43.432Z,6.45
2019-02-15T12:47:39.147Z,6.62
2019-02-15T12:52:35.103Z,12.53
2019-02-15T12:57:30.849Z,8.95
2019-02-15T13:02:26.537Z,7.37
2019-02-15T13:07:22.239Z,6.12
2019-02-15T13:12:18.187Z,6.00
2019-02-15T13:17:13.889Z,7.55
2019-02-15T13:22:10.437Z,6.53
2019-02-15T13:27:06.170Z,7.83
2019-02-15T13:32:02.090Z,6.55
2019-02-15T13:36:57.823Z,6.05
2019-02-15T13:41:53.507Z,6.70
2019-02-15T13:46:49.201Z,8.25
2019-02-15T13:51:45.042Z,5.95
2019-02-15T13:56:40.790Z,5.90
2019-02-15T14:01:36.595Z,6.47
2019-02-15T14:06:32.401Z,6.60
2019-02-15T14:11:28.093Z,6.03
2019-02-15T14:16:23.797Z,5.50
2019-02-15T14:21:19.503Z,7.78
2019-02-15T14:26:15.194Z,5.78
2019-02-15T14:31:10.906Z,3.85
2019-02-15T14:36:08.348Z,5.83
2019-02-15T14:41:04.451Z,4.62
2019-02-15T14:46:00.229Z,4.03
2019-02-15T14:50:56.221Z,5.92
2019-02-15T14:55:51.926Z,4.22
2019-02-15T15:00:47.792Z,6.92
2019-02-15T15:05:43.595Z,7.62
2019-02-15T15:10:39.317Z,8.10
2019-02-15T15:15:35.339Z,7.75
2019-02-15T15:20:31.072Z,8.25
2019-02-15T15:25:26.747Z,8.83
2019-02-15T15:30:22.737Z,8.53
2019-02-15T15:35:18.448Z,7.10
2019-02-15T15:40:15.152Z,10.07
2019-02-15T15:45:11.139Z,9.67
2019-02-15T15:50:07.885Z,10.60
2019-02-15T15:55:04.193Z,8.47
2019-02-15T15:59:59.916Z,6.90
2019-02-15T16:04:55.723Z,5.20
2019-02-15T16:09:51.641Z,5.27
2019-02-15T16:14:47.634Z,8.27
2019-02-15T16:19:49.187Z,14.63
2019-02-15T16:24:41.034Z,11.27
2019-02-15T16:29:36.819Z,13.47
2019-02-15T16:34:32.573Z,8.03
2019-02-15T16:39:28.349Z,16.30
2019-02-15T16:44:24.243Z,10.23
2019-02-15T16:49:19.933Z,9.47
2019-02-15T16:54:16.183Z,10.47
2019-02-15T16:59:11.862Z,12.10
2019-02-15T17:04:07.735Z,7.87
2019-02-15T17:09:05.844Z,6.70
2019-02-15T17:14:02.071Z,5.97
2019-02-15T17:18:57.746Z,4.83
2019-02-15T17:23:53.611Z,4.53
2019-02-15T17:28:49.291Z,7.60
2019-02-15T17:33:45.377Z,12.10
2019-02-15T17:38:41.050Z,20.57
2019-02-15T17:43:43.408Z,13.77
2019-02-15T17:48:39.175Z,14.00
2019-02-15T17:53:35.018Z,15.80
2019-02-15T17:58:30.767Z,13.70
2019-02-15T18:03:26.761Z,14.20
2019-02-15T18:08:22.519Z,8.67
2019-02-15T18:13:18.405Z,6.67
2019-02-15T18:18:14.071Z,8.97
2019-02-15T18:23:10.094Z,10.07
2019-02-15T18:28:05.871Z,14.47
2019-02-15T18:33:01.749Z,11.73
2019-02-15T18:37:57.459Z,8.33
2019-02-15T18:42:53.471Z,10.23
2019-02-15T18:47:50.392Z,10.50
2019-02-15T18:52:46.407Z,10.30
2019-02-15T18:57:42.209Z,10.10
2019-02-15T19:02:38.146Z,9.20
2019-02-15T19:07:33.883Z,10.63
2019-02-15T19:12:30.283Z,5.73
2019-02-15T19:17:26.058Z,9.40
2019-02-15T19:22:22.073Z,4.27
2019-02-15T19:27:17.748Z,5.67
2019-02-15T19:32:13.957Z,8.40
2019-02-15T19:37:09.824Z,4.27
2019-02-15T19:42:08.460Z,10.23
2019-02-15T19:47:04.316Z,8.27
2019-02-15T19:52:00.575Z,4.90
2019-02-15T19:56:56.453Z,8.00
2019-02-15T20:01:52.228Z,8.00
2019-02-15T20:06:48.096Z,13.50
2019-02-15T20:11:43.798Z,14.13
2019-02-15T20:16:39.770Z,19.97
2019-02-15T20:21:35.479Z,10.37
2019-02-15T20:26:31.643Z,6.63
2019-02-15T20:31:27.570Z,6.00
2019-02-15T20:41:25.523Z,7.07
2019-02-15T20:46:21.338Z,7.80
2019-02-15T20:56:26.105Z,4.87
2019-02-15T21:01:21.798Z,6.33
2019-02-15T21:06:17.692Z,7.47
2019-02-15T21:11:13.557Z,5.40
2019-02-15T21:16:09.580Z,6.60
2019-02-15T21:21:05.281Z,8.77
2019-02-15T21:26:03.889Z,7.60
2019-02-15T21:30:59.580Z,5.37
2019-02-15T21:35:55.319Z,6.10
2019-02-15T21:40:51.000Z,5.93
2019-02-15T21:45:46.883Z,6.63
2019-02-15T21:50:42.587Z,7.87
2019-02-15T21:55:38.547Z,5.57
2019-02-15T22:00:34.402Z,7.97
2019-02-15T22:05:30.379Z,8.47
2019-02-15T22:10:26.069Z,5.03
2019-02-15T22:15:21.918Z,5.13
2019-02-15T22:20:25.953Z,6.20
2019-02-15T22:25:15.482Z,5.07
2019-02-15T22:30:18.261Z,5.97
2019-02-15T22:35:14.051Z,6.63
2019-02-15T22:40:15.319Z,7.10
2019-02-15T22:45:11.246Z,7.50
2019-02-15T22:50:07.717Z,6.33
2019-02-15T22:55:04.090Z,10.70
2019-02-15T23:00:01.360Z,8.07
2019-02-15T23:04:57.937Z,7.73
2019-02-15T23:09:53.927Z,6.60
2019-02-15T23:14:49.612Z,9.70
2019-02-15T23:19:45.715Z,6.27
2019-02-15T23:24:41.390Z,6.63
2019-02-15T23:29:37.255Z,7.40
2019-02-15T23:34:32.931Z,7.20
2019-02-15T23:39:28.839Z,7.23
2019-02-15T23:44:24.497Z,9.77
2019-02-15T23:49:20.481Z,5.70
2019-02-15T23:54:16.159Z,6.33
2019-02-15T23:59:12.285Z,7.40
